Погода Дон-Педритуна неделю

Риу-Гранди-ду-Сул, Бразилия

07 - 13 февраля
  • 07февраля
    Сегодня
    +21°
    +36°
    Ясно и безоблачно
    ВремяПогодаТемператураВлажностьДавлениеВетер, м/сВероятность осадков
    00:00Небольшая облачность+22°C65 %747 мм1.9 м/с5 %
    03:00Ясно и безоблачно+22°C66 %747 мм2.6 м/с5 %
    06:00Ясно и безоблачно+21°C69 %747 мм3.0 м/с5 %
    09:00Ясно и безоблачно+28°C47 %748 мм3.2 м/с5 %
    12:00Ясно и безоблачно+33°C28 %748 мм2.2 м/с5 %
    15:00Ясно и безоблачно+35°C25 %746 мм1.5 м/с5 %
    18:00Ясно и безоблачно+34°C24 %745 мм0.5 м/с5 %
    21:00Ясно и безоблачно+29°C39 %746 мм3.4 м/с5 %
  • 08февраля
    Среда
    +22°
    +38°
    Практически безоблачно
    ВремяПогодаТемператураВлажностьДавлениеВетер, м/сВероятность осадков
    00:00Ясно и безоблачно+24°C53 %747 мм5.3 м/с5 %
    03:00Ясно и безоблачно+23°C61 %747 мм4.4 м/с5 %
    06:00Ясно и безоблачно+21°C66 %746 мм3.7 м/с5 %
    09:00Ясно и безоблачно+28°C48 %747 мм3.9 м/с5 %
    12:00Небольшая облачность+35°C29 %746 мм3.6 м/с5 %
    15:00Практически безоблачно+37°C22 %745 мм1.4 м/с5 %
    18:00Небольшая облачность+35°C23 %744 мм2.4 м/с4 %
    21:00Облачно с прояснениями+28°C43 %746 мм5.3 м/с21 %
  • 09февраля
    Четверг
    +21°
    +37°
    Небольшая облачность, возможен дождь с грозой
    ВремяПогодаТемператураВлажностьДавлениеВетер, м/сВероятность осадков
    00:00Пасмурно, сплошная облачность+25°C56 %746 мм2.2 м/с27 %
    03:00Облачно с прояснениями+24°C60 %745 мм4.6 м/с11 %
    06:00Ясно и безоблачно+23°C70 %746 мм3.4 м/с11 %
    09:00Ясно и безоблачно+29°C52 %747 мм3.9 м/с7 %
    12:00Ясно и безоблачно+36°C30 %747 мм3.6 м/с20 %
    15:00Небольшая облачность, возможен дождь с грозой+37°C27 %746 мм3.2 м/с20 %
    18:00Небольшая облачность+31°C28 %745 мм3.3 м/с15 %
    21:00Облачно с прояснениями+27°C50 %746 мм3.0 м/с20 %
  • 10февраля
    Пятница
    +21°
    +37°
    Ясно и безоблачно
    ВремяПогодаТемператураВлажностьДавлениеВетер, м/сВероятность осадков
    00:00Ясно и безоблачно+23°C64 %747 мм1.9 м/с5 %
    03:00Ясно и безоблачно+22°C67 %746 мм2.5 м/с5 %
    06:00Ясно и безоблачно+22°C72 %747 мм2.3 м/с3 %
    09:00Ясно и безоблачно+28°C52 %748 мм2.7 м/с4 %
    12:00Ясно и безоблачно+34°C32 %748 мм0.8 м/с5 %
    15:00Ясно и безоблачно+37°C26 %746 мм1.9 м/с5 %
    18:00Ясно и безоблачно+35°C24 %745 мм3.3 м/с5 %
    21:00Ясно и безоблачно+30°C35 %746 мм4.8 м/с4 %
  • 11февраля
    Суббота
    +22°
    +38°
    Ясно и безоблачно
    ВремяПогодаТемператураВлажностьДавлениеВетер, м/сВероятность осадков
    00:00Ясно и безоблачно+25°C65 %747 мм5.7 м/с5 %
    03:00Ясно и безоблачно+24°C74 %746 мм3.3 м/с5 %
    06:00Ясно и безоблачно+22°C81 %746 мм1.4 м/с5 %
    09:00Ясно и безоблачно+29°C56 %747 мм2.2 м/с5 %
    12:00Ясно и безоблачно+35°C30 %747 мм0.9 м/с5 %
    15:00Ясно и безоблачно+37°C26 %745 мм3.1 м/с5 %
    18:00Практически безоблачно+36°C24 %744 мм4.1 м/с5 %
    21:00Ясно и безоблачно+31°C33 %744 мм3.1 м/с5 %
Мы используем cookies
Соглашаюсь